Andrewsfield, United Kingdom
Current Conditions -  °F | °C
As of 9:50 AM on Thursday 29 Jan 2015 (Local Time) from EGYM Reporting Station
Scattered Clouds Scattered Clouds  
Wind Chill: 26°   Ceiling: Unl
Heat Index: 37°   Visibility: 6mi
Dew Point: 32°   Wind: 23mph
Humidity: 81%   Direction: 240°WSW
Pressure: 29"   Gusts: NA
Location:  52.88°N, 0.45°E
Report Text: EGYM 290950Z 24020KT 9999 FEW020 SCT160 03/00 Q0982 BLU NOSIG
Loading
Personal Weather Stations






























Interactive Weather Map New forecast layout! Learn more

10-Day Weather Forecast

Advertisements
Track Severe Weather on mobile